sensor_id;sensor_type;location;lat;lon;timestamp;temperature;humidity
65826;DHT22;52586;-43.152;172.732;2023-03-23T00:00:43;20.70;49.60
65826;DHT22;52586;-43.152;172.732;2023-03-23T00:03:14;20.70;49.70
65826;DHT22;52586;-43.152;172.732;2023-03-23T00:05:45;20.70;49.70
65826;DHT22;52586;-43.152;172.732;2023-03-23T00:08:19;20.80;49.70
65826;DHT22;52586;-43.152;172.732;2023-03-23T00:10:53;20.80;49.70
65826;DHT22;52586;-43.152;172.732;2023-03-23T00:13:24;20.80;49.70
65826;DHT22;52586;-43.152;172.732;2023-03-23T00:15:55;20.80;49.80
65826;DHT22;52586;-43.152;172.732;2023-03-23T00:18:27;20.90;49.80
65826;DHT22;52586;-43.152;172.732;2023-03-23T00:21:04;20.90;49.80
65826;DHT22;52586;-43.152;172.732;2023-03-23T00:23:35;20.90;49.70
65826;DHT22;52586;-43.152;172.732;2023-03-23T00:26:08;21.00;49.80
65826;DHT22;52586;-43.152;172.732;2023-03-23T00:28:38;21.00;49.70
65826;DHT22;52586;-43.152;172.732;2023-03-23T00:31:10;21.00;49.50
65826;DHT22;52586;-43.152;172.732;2023-03-23T00:33:41;21.00;49.50
65826;DHT22;52586;-43.152;172.732;2023-03-23T00:36:12;21.10;49.50
65826;DHT22;52586;-43.152;172.732;2023-03-23T00:38:43;21.10;49.50
65826;DHT22;52586;-43.152;172.732;2023-03-23T00:41:17;21.10;49.50
65826;DHT22;52586;-43.152;172.732;2023-03-23T00:43:48;21.10;49.50
65826;DHT22;52586;-43.152;172.732;2023-03-23T00:46:19;21.10;49.50
65826;DHT22;52586;-43.152;172.732;2023-03-23T00:48:50;21.20;49.60
65826;DHT22;52586;-43.152;172.732;2023-03-23T00:51:21;21.20;49.60
65826;DHT22;52586;-43.152;172.732;2023-03-23T00:53:51;21.20;49.60
65826;DHT22;52586;-43.152;172.732;2023-03-23T00:56:24;21.30;49.60
65826;DHT22;52586;-43.152;172.732;2023-03-23T00:58:55;21.30;49.60
65826;DHT22;52586;-43.152;172.732;2023-03-23T01:01:25;21.30;50.20
65826;DHT22;52586;-43.152;172.732;2023-03-23T01:03:57;21.30;49.60
65826;DHT22;52586;-43.152;172.732;2023-03-23T01:06:32;21.30;49.60
65826;DHT22;52586;-43.152;172.732;2023-03-23T01:09:03;21.30;49.50
65826;DHT22;52586;-43.152;172.732;2023-03-23T01:11:36;21.40;49.40
65826;DHT22;52586;-43.152;172.732;2023-03-23T01:14:07;21.40;49.40
65826;DHT22;52586;-43.152;172.732;2023-03-23T01:16:38;21.40;49.40
65826;DHT22;52586;-43.152;172.732;2023-03-23T01:19:09;21.40;49.40
65826;DHT22;52586;-43.152;172.732;2023-03-23T01:21:39;21.50;49.40
65826;DHT22;52586;-43.152;172.732;2023-03-23T01:24:10;21.50;49.40
65826;DHT22;52586;-43.152;172.732;2023-03-23T01:26:42;21.50;49.30
65826;DHT22;52586;-43.152;172.732;2023-03-23T01:29:13;21.50;49.30
65826;DHT22;52586;-43.152;172.732;2023-03-23T01:31:44;21.60;49.30
65826;DHT22;52586;-43.152;172.732;2023-03-23T01:34:14;21.60;49.40
65826;DHT22;52586;-43.152;172.732;2023-03-23T01:36:45;21.60;49.40
65826;DHT22;52586;-43.152;172.732;2023-03-23T01:39:16;21.60;49.40
65826;DHT22;52586;-43.152;172.732;2023-03-23T01:41:48;21.60;49.40
65826;DHT22;52586;-43.152;172.732;2023-03-23T01:47:22;21.60;49.30
65826;DHT22;52586;-43.152;172.732;2023-03-23T01:49:54;21.70;49.30
65826;DHT22;52586;-43.152;172.732;2023-03-23T01:52:26;21.70;49.30
65826;DHT22;52586;-43.152;172.732;2023-03-23T01:54:59;21.70;49.30
65826;DHT22;52586;-43.152;172.732;2023-03-23T01:57:32;21.70;49.30
65826;DHT22;52586;-43.152;172.732;2023-03-23T02:00:06;21.80;49.30
65826;DHT22;52586;-43.152;172.732;2023-03-23T02:02:43;21.80;49.30
65826;DHT22;52586;-43.152;172.732;2023-03-23T02:05:19;21.80;49.30
65826;DHT22;52586;-43.152;172.732;2023-03-23T02:07:52;21.80;49.30
65826;DHT22;52586;-43.152;172.732;2023-03-23T02:10:24;21.80;49.40
65826;DHT22;52586;-43.152;172.732;2023-03-23T02:12:57;21.90;49.40
65826;DHT22;52586;-43.152;172.732;2023-03-23T02:15:32;21.90;49.30
65826;DHT22;52586;-43.152;172.732;2023-03-23T02:18:08;21.90;49.30
65826;DHT22;52586;-43.152;172.732;2023-03-23T02:20:55;21.90;49.30
65826;DHT22;52586;-43.152;172.732;2023-03-23T02:26:53;22.00;49.20
65826;DHT22;52586;-43.152;172.732;2023-03-23T02:29:45;22.00;49.20
65826;DHT22;52586;-43.152;172.732;2023-03-23T02:32:35;22.00;49.20
65826;DHT22;52586;-43.152;172.732;2023-03-23T02:35:14;22.10;49.20
65826;DHT22;52586;-43.152;172.732;2023-03-23T02:37:50;22.10;49.20
65826;DHT22;52586;-43.152;172.732;2023-03-23T02:40:25;22.10;49.10
65826;DHT22;52586;-43.152;172.732;2023-03-23T02:42:58;22.10;49.10
65826;DHT22;52586;-43.152;172.732;2023-03-23T02:45:30;22.20;49.20
65826;DHT22;52586;-43.152;172.732;2023-03-23T02:48:04;22.20;49.20
65826;DHT22;52586;-43.152;172.732;2023-03-23T02:50:38;22.30;49.30
65826;DHT22;52586;-43.152;172.732;2023-03-23T02:53:10;22.30;49.30
65826;DHT22;52586;-43.152;172.732;2023-03-23T02:55:43;22.30;49.20
65826;DHT22;52586;-43.152;172.732;2023-03-23T02:58:16;22.40;49.30
65826;DHT22;52586;-43.152;172.732;2023-03-23T03:00:47;22.40;49.20
65826;DHT22;52586;-43.152;172.732;2023-03-23T03:03:21;22.40;49.20
65826;DHT22;52586;-43.152;172.732;2023-03-23T03:06:00;22.40;49.20
65826;DHT22;52586;-43.152;172.732;2023-03-23T03:08:38;22.50;49.20
65826;DHT22;52586;-43.152;172.732;2023-03-23T03:11:13;22.50;49.20
65826;DHT22;52586;-43.152;172.732;2023-03-23T03:13:47;22.60;49.20
65826;DHT22;52586;-43.152;172.732;2023-03-23T03:16:24;22.60;49.20
65826;DHT22;52586;-43.152;172.732;2023-03-23T03:19:00;22.60;49.10
65826;DHT22;52586;-43.152;172.732;2023-03-23T03:21:35;22.70;49.60
65826;DHT22;52586;-43.152;172.732;2023-03-23T03:24:07;22.70;49.00
65826;DHT22;52586;-43.152;172.732;2023-03-23T03:26:40;22.70;49.00
65826;DHT22;52586;-43.152;172.732;2023-03-23T03:29:15;22.70;49.00
65826;DHT22;52586;-43.152;172.732;2023-03-23T03:31:48;22.80;48.90
65826;DHT22;52586;-43.152;172.732;2023-03-23T03:34:19;22.80;48.80
65826;DHT22;52586;-43.152;172.732;2023-03-23T03:36:55;22.80;48.80
65826;DHT22;52586;-43.152;172.732;2023-03-23T03:39:27;22.90;48.80
65826;DHT22;52586;-43.152;172.732;2023-03-23T03:41:58;22.90;48.70
65826;DHT22;52586;-43.152;172.732;2023-03-23T03:44:29;22.90;48.70
65826;DHT22;52586;-43.152;172.732;2023-03-23T03:47:00;22.90;48.70
65826;DHT22;52586;-43.152;172.732;2023-03-23T03:49:30;23.00;48.70
65826;DHT22;52586;-43.152;172.732;2023-03-23T03:52:03;23.00;48.70
65826;DHT22;52586;-43.152;172.732;2023-03-23T03:54:34;23.00;48.60
65826;DHT22;52586;-43.152;172.732;2023-03-23T03:57:05;23.10;48.60
65826;DHT22;52586;-43.152;172.732;2023-03-23T03:59:35;23.10;48.40
65826;DHT22;52586;-43.152;172.732;2023-03-23T04:02:06;23.10;48.40
65826;DHT22;52586;-43.152;172.732;2023-03-23T04:04:37;23.10;48.40
65826;DHT22;52586;-43.152;172.732;2023-03-23T04:07:10;23.10;48.30
65826;DHT22;52586;-43.152;172.732;2023-03-23T04:09:41;23.20;48.40
65826;DHT22;52586;-43.152;172.732;2023-03-23T04:12:14;23.20;48.30
65826;DHT22;52586;-43.152;172.732;2023-03-23T04:14:45;23.30;48.30
65826;DHT22;52586;-43.152;172.732;2023-03-23T04:17:15;23.30;48.30
65826;DHT22;52586;-43.152;172.732;2023-03-23T04:19:47;23.30;48.30
65826;DHT22;52586;-43.152;172.732;2023-03-23T04:22:20;23.30;48.20
65826;DHT22;52586;-43.152;172.732;2023-03-23T04:24:52;23.40;48.30
65826;DHT22;52586;-43.152;172.732;2023-03-23T04:27:26;23.40;48.20
65826;DHT22;52586;-43.152;172.732;2023-03-23T04:29:57;23.40;48.10
65826;DHT22;52586;-43.152;172.732;2023-03-23T04:32:28;23.40;48.10
65826;DHT22;52586;-43.152;172.732;2023-03-23T04:34:59;23.50;48.40
65826;DHT22;52586;-43.152;172.732;2023-03-23T04:37:32;23.50;48.10
65826;DHT22;52586;-43.152;172.732;2023-03-23T04:40:03;23.50;48.00
65826;DHT22;52586;-43.152;172.732;2023-03-23T04:42:39;23.50;47.90
65826;DHT22;52586;-43.152;172.732;2023-03-23T04:45:14;23.60;47.90
65826;DHT22;52586;-43.152;172.732;2023-03-23T04:47:49;23.50;47.90
65826;DHT22;52586;-43.152;172.732;2023-03-23T04:50:27;23.60;47.90
65826;DHT22;52586;-43.152;172.732;2023-03-23T04:53:02;23.60;48.40
65826;DHT22;52586;-43.152;172.732;2023-03-23T04:55:34;23.60;47.90
65826;DHT22;52586;-43.152;172.732;2023-03-23T04:58:06;23.60;47.80
65826;DHT22;52586;-43.152;172.732;2023-03-23T05:00:37;23.60;47.70
65826;DHT22;52586;-43.152;172.732;2023-03-23T05:03:08;23.50;47.70
65826;DHT22;52586;-43.152;172.732;2023-03-23T05:05:39;23.50;47.60
65826;DHT22;52586;-43.152;172.732;2023-03-23T05:08:11;23.50;47.60
65826;DHT22;52586;-43.152;172.732;2023-03-23T05:10:42;23.50;47.70
65826;DHT22;52586;-43.152;172.732;2023-03-23T05:13:12;23.50;47.60
65826;DHT22;52586;-43.152;172.732;2023-03-23T05:15:43;23.50;47.60
65826;DHT22;52586;-43.152;172.732;2023-03-23T05:18:14;23.50;47.60
65826;DHT22;52586;-43.152;172.732;2023-03-23T05:20:45;23.50;47.60
65826;DHT22;52586;-43.152;172.732;2023-03-23T05:23:18;23.50;47.60
65826;DHT22;52586;-43.152;172.732;2023-03-23T05:25:55;23.50;47.50
65826;DHT22;52586;-43.152;172.732;2023-03-23T05:28:28;23.50;47.50
65826;DHT22;52586;-43.152;172.732;2023-03-23T05:30:58;23.50;47.40
65826;DHT22;52586;-43.152;172.732;2023-03-23T05:33:29;23.50;47.40
65826;DHT22;52586;-43.152;172.732;2023-03-23T05:36:00;23.50;47.40
65826;DHT22;52586;-43.152;172.732;2023-03-23T05:38:33;23.40;47.30
65826;DHT22;52586;-43.152;172.732;2023-03-23T05:41:06;23.40;47.20
65826;DHT22;52586;-43.152;172.732;2023-03-23T05:43:37;23.40;47.10
65826;DHT22;52586;-43.152;172.732;2023-03-23T05:46:08;23.40;47.20
65826;DHT22;52586;-43.152;172.732;2023-03-23T05:48:39;23.40;47.10
65826;DHT22;52586;-43.152;172.732;2023-03-23T05:51:09;23.30;47.10
65826;DHT22;52586;-43.152;172.732;2023-03-23T05:53:42;23.30;47.10
65826;DHT22;52586;-43.152;172.732;2023-03-23T05:56:12;23.30;47.20
65826;DHT22;52586;-43.152;172.732;2023-03-23T05:58:43;23.40;47.20
65826;DHT22;52586;-43.152;172.732;2023-03-23T06:01:14;23.30;47.20
65826;DHT22;52586;-43.152;172.732;2023-03-23T06:03:44;23.30;47.20
65826;DHT22;52586;-43.152;172.732;2023-03-23T06:06:16;23.30;47.20
65826;DHT22;52586;-43.152;172.732;2023-03-23T06:08:49;23.30;47.20
65826;DHT22;52586;-43.152;172.732;2023-03-23T06:11:20;23.30;47.10
65826;DHT22;52586;-43.152;172.732;2023-03-23T06:13:51;23.30;47.10
65826;DHT22;52586;-43.152;172.732;2023-03-23T06:16:22;23.30;47.10
65826;DHT22;52586;-43.152;172.732;2023-03-23T06:18:52;23.20;47.00
65826;DHT22;52586;-43.152;172.732;2023-03-23T06:21:24;23.20;47.00
65826;DHT22;52586;-43.152;172.732;2023-03-23T06:23:56;23.20;47.10
65826;DHT22;52586;-43.152;172.732;2023-03-23T06:26:30;23.10;47.00
65826;DHT22;52586;-43.152;172.732;2023-03-23T06:29:02;23.10;47.10
65826;DHT22;52586;-43.152;172.732;2023-03-23T06:31:39;23.10;47.10
65826;DHT22;52586;-43.152;172.732;2023-03-23T06:34:11;23.10;47.10
65826;DHT22;52586;-43.152;172.732;2023-03-23T06:36:42;23.10;47.10
65826;DHT22;52586;-43.152;172.732;2023-03-23T06:39:15;23.10;47.10
65826;DHT22;52586;-43.152;172.732;2023-03-23T06:41:46;23.10;47.20
65826;DHT22;52586;-43.152;172.732;2023-03-23T06:44:16;23.10;47.20
65826;DHT22;52586;-43.152;172.732;2023-03-23T06:46:47;23.10;47.10
65826;DHT22;52586;-43.152;172.732;2023-03-23T06:49:18;23.10;47.10
65826;DHT22;52586;-43.152;172.732;2023-03-23T06:51:49;23.10;47.10
65826;DHT22;52586;-43.152;172.732;2023-03-23T06:54:21;23.10;47.10
65826;DHT22;52586;-43.152;172.732;2023-03-23T06:56:52;23.00;47.00
65826;DHT22;52586;-43.152;172.732;2023-03-23T06:59:22;23.00;47.00
65826;DHT22;52586;-43.152;172.732;2023-03-23T07:01:53;23.00;47.00
65826;DHT22;52586;-43.152;172.732;2023-03-23T07:04:24;23.00;47.00
65826;DHT22;52586;-43.152;172.732;2023-03-23T07:06:55;23.00;47.00
65826;DHT22;52586;-43.152;172.732;2023-03-23T07:09:28;23.00;47.10
65826;DHT22;52586;-43.152;172.732;2023-03-23T07:11:58;22.90;47.10
65826;DHT22;52586;-43.152;172.732;2023-03-23T07:14:29;22.90;47.10
65826;DHT22;52586;-43.152;172.732;2023-03-23T07:17:00;22.90;47.10
65826;DHT22;52586;-43.152;172.732;2023-03-23T07:19:30;22.90;47.10
65826;DHT22;52586;-43.152;172.732;2023-03-23T07:22:03;22.90;47.10
65826;DHT22;52586;-43.152;172.732;2023-03-23T07:24:36;22.90;47.10
65826;DHT22;52586;-43.152;172.732;2023-03-23T07:27:06;22.90;47.10
65826;DHT22;52586;-43.152;172.732;2023-03-23T07:29:37;22.90;47.10
65826;DHT22;52586;-43.152;172.732;2023-03-23T07:32:11;22.90;47.10
65826;DHT22;52586;-43.152;172.732;2023-03-23T07:34:42;22.80;47.10
65826;DHT22;52586;-43.152;172.732;2023-03-23T07:37:12;22.80;47.00
65826;DHT22;52586;-43.152;172.732;2023-03-23T07:39:45;22.80;47.10
65826;DHT22;52586;-43.152;172.732;2023-03-23T07:42:16;22.70;47.00
65826;DHT22;52586;-43.152;172.732;2023-03-23T07:44:46;22.70;47.00
65826;DHT22;52586;-43.152;172.732;2023-03-23T07:47:19;22.70;47.00
65826;DHT22;52586;-43.152;172.732;2023-03-23T07:49:50;22.70;47.00
65826;DHT22;52586;-43.152;172.732;2023-03-23T07:52:20;22.70;47.10
65826;DHT22;52586;-43.152;172.732;2023-03-23T07:54:53;22.70;47.10
65826;DHT22;52586;-43.152;172.732;2023-03-23T07:57:24;22.70;47.10
65826;DHT22;52586;-43.152;172.732;2023-03-23T07:59:55;22.70;47.10
65826;DHT22;52586;-43.152;172.732;2023-03-23T08:02:25;22.60;47.10
65826;DHT22;52586;-43.152;172.732;2023-03-23T08:04:56;22.60;47.10
65826;DHT22;52586;-43.152;172.732;2023-03-23T08:07:28;22.60;47.10
65826;DHT22;52586;-43.152;172.732;2023-03-23T08:10:01;22.60;47.10
65826;DHT22;52586;-43.152;172.732;2023-03-23T08:12:32;22.60;47.20
65826;DHT22;52586;-43.152;172.732;2023-03-23T08:15:03;22.60;47.20
65826;DHT22;52586;-43.152;172.732;2023-03-23T08:17:35;22.60;47.20
65826;DHT22;52586;-43.152;172.732;2023-03-23T08:20:06;22.60;47.20
65826;DHT22;52586;-43.152;172.732;2023-03-23T08:22:41;22.50;47.20
65826;DHT22;52586;-43.152;172.732;2023-03-23T08:25:15;22.50;47.20
65826;DHT22;52586;-43.152;172.732;2023-03-23T08:27:46;22.50;47.20
65826;DHT22;52586;-43.152;172.732;2023-03-23T08:30:18;22.50;47.30
65826;DHT22;52586;-43.152;172.732;2023-03-23T08:32:49;22.50;47.20
65826;DHT22;52586;-43.152;172.732;2023-03-23T08:35:20;22.50;47.30
65826;DHT22;52586;-43.152;172.732;2023-03-23T08:37:51;22.50;47.30
65826;DHT22;52586;-43.152;172.732;2023-03-23T08:40:25;22.50;47.30
65826;DHT22;52586;-43.152;172.732;2023-03-23T08:42:56;22.50;47.30
65826;DHT22;52586;-43.152;172.732;2023-03-23T08:45:27;22.50;47.40
65826;DHT22;52586;-43.152;172.732;2023-03-23T08:47:58;22.40;47.30
65826;DHT22;52586;-43.152;172.732;2023-03-23T08:50:29;22.40;47.40
65826;DHT22;52586;-43.152;172.732;2023-03-23T08:53:00;22.40;47.30
65826;DHT22;52586;-43.152;172.732;2023-03-23T08:55:33;22.40;47.40
65826;DHT22;52586;-43.152;172.732;2023-03-23T08:58:03;22.40;47.40
65826;DHT22;52586;-43.152;172.732;2023-03-23T09:00:34;22.40;47.40
65826;DHT22;52586;-43.152;172.732;2023-03-23T09:03:05;22.40;47.50
65826;DHT22;52586;-43.152;172.732;2023-03-23T09:05:35;22.40;47.50
65826;DHT22;52586;-43.152;172.732;2023-03-23T09:08:10;22.30;47.50
65826;DHT22;52586;-43.152;172.732;2023-03-23T09:10:44;22.30;47.50
65826;DHT22;52586;-43.152;172.732;2023-03-23T09:13:14;22.30;47.50
65826;DHT22;52586;-43.152;172.732;2023-03-23T09:15:45;22.30;47.50
65826;DHT22;52586;-43.152;172.732;2023-03-23T09:18:15;22.30;47.50
65826;DHT22;52586;-43.152;172.732;2023-03-23T09:20:47;22.30;47.50
65826;DHT22;52586;-43.152;172.732;2023-03-23T09:23:19;22.30;47.60
65826;DHT22;52586;-43.152;172.732;2023-03-23T09:25:52;22.30;47.60
65826;DHT22;52586;-43.152;172.732;2023-03-23T09:28:23;22.30;47.60
65826;DHT22;52586;-43.152;172.732;2023-03-23T09:30:55;22.30;47.60
65826;DHT22;52586;-43.152;172.732;2023-03-23T09:33:26;22.20;47.50
65826;DHT22;52586;-43.152;172.732;2023-03-23T09:36:02;22.20;47.50
65826;DHT22;52586;-43.152;172.732;2023-03-23T09:38:35;22.20;47.50
65826;DHT22;52586;-43.152;172.732;2023-03-23T09:41:17;22.20;47.60
65826;DHT22;52586;-43.152;172.732;2023-03-23T09:43:58;22.20;47.60
65826;DHT22;52586;-43.152;172.732;2023-03-23T09:46:41;22.20;47.60
65826;DHT22;52586;-43.152;172.732;2023-03-23T09:49:15;22.20;47.60
65826;DHT22;52586;-43.152;172.732;2023-03-23T09:51:50;22.20;47.60
65826;DHT22;52586;-43.152;172.732;2023-03-23T09:54:23;22.20;47.60
65826;DHT22;52586;-43.152;172.732;2023-03-23T09:56:58;22.20;47.60
65826;DHT22;52586;-43.152;172.732;2023-03-23T09:59:31;22.10;47.60
65826;DHT22;52586;-43.152;172.732;2023-03-23T10:02:13;22.10;47.60
65826;DHT22;52586;-43.152;172.732;2023-03-23T10:04:46;22.10;47.60
65826;DHT22;52586;-43.152;172.732;2023-03-23T10:07:18;22.10;47.60
65826;DHT22;52586;-43.152;172.732;2023-03-23T10:09:51;22.10;47.60
65826;DHT22;52586;-43.152;172.732;2023-03-23T10:12:29;22.10;47.70
65826;DHT22;52586;-43.152;172.732;2023-03-23T10:15:14;22.10;47.60
65826;DHT22;52586;-43.152;172.732;2023-03-23T10:17:52;22.00;47.60
65826;DHT22;52586;-43.152;172.732;2023-03-23T10:20:35;22.00;47.60
65826;DHT22;52586;-43.152;172.732;2023-03-23T10:23:20;22.00;47.70
65826;DHT22;52586;-43.152;172.732;2023-03-23T10:25:57;22.00;47.70
65826;DHT22;52586;-43.152;172.732;2023-03-23T10:28:40;22.00;47.70
65826;DHT22;52586;-43.152;172.732;2023-03-23T10:31:13;22.00;47.70
65826;DHT22;52586;-43.152;172.732;2023-03-23T10:33:47;22.00;47.70
65826;DHT22;52586;-43.152;172.732;2023-03-23T10:36:21;22.00;47.70
65826;DHT22;52586;-43.152;172.732;2023-03-23T10:38:57;22.00;47.70
65826;DHT22;52586;-43.152;172.732;2023-03-23T10:41:29;22.00;47.90
65826;DHT22;52586;-43.152;172.732;2023-03-23T10:44:03;21.90;47.70
65826;DHT22;52586;-43.152;172.732;2023-03-23T10:46:42;21.90;47.70
65826;DHT22;52586;-43.152;172.732;2023-03-23T10:49:19;21.90;47.70
65826;DHT22;52586;-43.152;172.732;2023-03-23T10:51:57;21.90;47.70
65826;DHT22;52586;-43.152;172.732;2023-03-23T10:54:37;21.90;47.70
65826;DHT22;52586;-43.152;172.732;2023-03-23T10:57:22;21.90;47.70
65826;DHT22;52586;-43.152;172.732;2023-03-23T11:00:03;21.90;47.80
65826;DHT22;52586;-43.152;172.732;2023-03-23T11:02:40;21.80;47.80
65826;DHT22;52586;-43.152;172.732;2023-03-23T11:05:18;21.80;47.80
65826;DHT22;52586;-43.152;172.732;2023-03-23T11:07:53;21.80;47.80
65826;DHT22;52586;-43.152;172.732;2023-03-23T11:10:25;21.80;47.80
65826;DHT22;52586;-43.152;172.732;2023-03-23T11:12:58;21.80;47.80
65826;DHT22;52586;-43.152;172.732;2023-03-23T11:15:32;21.80;47.90
65826;DHT22;52586;-43.152;172.732;2023-03-23T11:18:04;21.80;47.90
65826;DHT22;52586;-43.152;172.732;2023-03-23T11:20:37;21.80;47.80
65826;DHT22;52586;-43.152;172.732;2023-03-23T11:23:17;21.80;47.80
65826;DHT22;52586;-43.152;172.732;2023-03-23T11:25:57;21.70;47.80
65826;DHT22;52586;-43.152;172.732;2023-03-23T11:28:31;21.70;47.90
65826;DHT22;52586;-43.152;172.732;2023-03-23T11:31:06;21.70;47.90
65826;DHT22;52586;-43.152;172.732;2023-03-23T11:33:43;21.70;47.80
65826;DHT22;52586;-43.152;172.732;2023-03-23T11:36:16;21.70;47.90
65826;DHT22;52586;-43.152;172.732;2023-03-23T11:38:47;21.70;47.90
65826;DHT22;52586;-43.152;172.732;2023-03-23T11:41:21;21.70;47.90
65826;DHT22;52586;-43.152;172.732;2023-03-23T11:43:53;21.60;47.90
65826;DHT22;52586;-43.152;172.732;2023-03-23T11:46:35;21.60;47.90
65826;DHT22;52586;-43.152;172.732;2023-03-23T11:49:15;21.60;47.90
65826;DHT22;52586;-43.152;172.732;2023-03-23T11:51:50;21.60;48.00
65826;DHT22;52586;-43.152;172.732;2023-03-23T11:54:28;21.60;48.00
65826;DHT22;52586;-43.152;172.732;2023-03-23T11:57:00;21.60;48.00
65826;DHT22;52586;-43.152;172.732;2023-03-23T11:59:33;21.60;47.90
65826;DHT22;52586;-43.152;172.732;2023-03-23T12:02:28;21.60;47.90
65826;DHT22;52586;-43.152;172.732;2023-03-23T12:08:21;21.60;48.00
65826;DHT22;52586;-43.152;172.732;2023-03-23T12:10:58;21.50;47.90
65826;DHT22;52586;-43.152;172.732;2023-03-23T12:13:46;21.50;47.90
65826;DHT22;52586;-43.152;172.732;2023-03-23T12:16:32;21.50;48.00
65826;DHT22;52586;-43.152;172.732;2023-03-23T12:19:15;21.50;48.00
65826;DHT22;52586;-43.152;172.732;2023-03-23T12:21:54;21.50;48.10
65826;DHT22;52586;-43.152;172.732;2023-03-23T12:24:46;21.50;48.10
65826;DHT22;52586;-43.152;172.732;2023-03-23T12:27:28;21.50;48.10
65826;DHT22;52586;-43.152;172.732;2023-03-23T12:30:15;21.40;48.10
65826;DHT22;52586;-43.152;172.732;2023-03-23T12:33:09;21.40;48.10
65826;DHT22;52586;-43.152;172.732;2023-03-23T12:35:52;21.40;48.10
65826;DHT22;52586;-43.152;172.732;2023-03-23T12:38:43;21.40;48.10
65826;DHT22;52586;-43.152;172.732;2023-03-23T12:41:18;21.40;48.10
65826;DHT22;52586;-43.152;172.732;2023-03-23T12:43:52;21.40;48.10
65826;DHT22;52586;-43.152;172.732;2023-03-23T12:49:21;21.40;48.20
65826;DHT22;52586;-43.152;172.732;2023-03-23T12:51:59;21.30;48.10
65826;DHT22;52586;-43.152;172.732;2023-03-23T12:54:34;21.30;48.20
65826;DHT22;52586;-43.152;172.732;2023-03-23T12:57:10;21.30;48.20
65826;DHT22;52586;-43.152;172.732;2023-03-23T12:59:47;21.30;48.20
65826;DHT22;52586;-43.152;172.732;2023-03-23T13:02:22;21.30;48.30
65826;DHT22;52586;-43.152;172.732;2023-03-23T13:04:57;21.30;48.30
65826;DHT22;52586;-43.152;172.732;2023-03-23T13:07:37;21.30;48.30
65826;DHT22;52586;-43.152;172.732;2023-03-23T13:10:22;21.30;48.30
65826;DHT22;52586;-43.152;172.732;2023-03-23T13:12:54;21.30;48.30
65826;DHT22;52586;-43.152;172.732;2023-03-23T13:15:34;21.30;48.30
65826;DHT22;52586;-43.152;172.732;2023-03-23T13:18:12;21.30;48.30
65826;DHT22;52586;-43.152;172.732;2023-03-23T13:21:05;21.30;48.30
65826;DHT22;52586;-43.152;172.732;2023-03-23T13:23:40;21.20;48.20
65826;DHT22;52586;-43.152;172.732;2023-03-23T13:26:14;21.20;48.30
65826;DHT22;52586;-43.152;172.732;2023-03-23T13:29:00;21.20;48.30
65826;DHT22;52586;-43.152;172.732;2023-03-23T13:31:32;21.20;48.30
65826;DHT22;52586;-43.152;172.732;2023-03-23T13:34:05;21.20;48.30
65826;DHT22;52586;-43.152;172.732;2023-03-23T13:36:37;21.20;48.30
65826;DHT22;52586;-43.152;172.732;2023-03-23T13:39:20;21.20;48.40
65826;DHT22;52586;-43.152;172.732;2023-03-23T13:42:05;21.10;48.40
65826;DHT22;52586;-43.152;172.732;2023-03-23T13:44:44;21.20;48.40
65826;DHT22;52586;-43.152;172.732;2023-03-23T13:47:35;21.10;48.40
65826;DHT22;52586;-43.152;172.732;2023-03-23T13:50:12;21.10;48.40
65826;DHT22;52586;-43.152;172.732;2023-03-23T13:52:56;21.10;48.40
65826;DHT22;52586;-43.152;172.732;2023-03-23T13:55:47;21.10;48.30
65826;DHT22;52586;-43.152;172.732;2023-03-23T13:58:25;21.10;48.40
65826;DHT22;52586;-43.152;172.732;2023-03-23T14:01:29;21.10;48.40
65826;DHT22;52586;-43.152;172.732;2023-03-23T14:04:09;21.10;48.40
65826;DHT22;52586;-43.152;172.732;2023-03-23T14:06:41;21.10;48.40
65826;DHT22;52586;-43.152;172.732;2023-03-23T14:09:16;21.10;48.40
65826;DHT22;52586;-43.152;172.732;2023-03-23T14:11:56;21.10;48.40
65826;DHT22;52586;-43.152;172.732;2023-03-23T14:14:31;21.10;48.50
65826;DHT22;52586;-43.152;172.732;2023-03-23T14:17:12;21.00;48.50
65826;DHT22;52586;-43.152;172.732;2023-03-23T14:19:48;21.00;48.40
65826;DHT22;52586;-43.152;172.732;2023-03-23T14:22:22;21.00;48.50
65826;DHT22;52586;-43.152;172.732;2023-03-23T14:25:00;21.00;48.50
65826;DHT22;52586;-43.152;172.732;2023-03-23T14:27:38;21.00;48.50
65826;DHT22;52586;-43.152;172.732;2023-03-23T14:30:14;21.00;48.50
65826;DHT22;52586;-43.152;172.732;2023-03-23T14:32:45;21.00;48.50
65826;DHT22;52586;-43.152;172.732;2023-03-23T14:35:25;21.00;48.40
65826;DHT22;52586;-43.152;172.732;2023-03-23T14:37:57;21.00;48.50
65826;DHT22;52586;-43.152;172.732;2023-03-23T14:40:28;21.00;48.50
65826;DHT22;52586;-43.152;172.732;2023-03-23T14:43:01;21.00;48.50
65826;DHT22;52586;-43.152;172.732;2023-03-23T14:45:33;20.90;48.40
65826;DHT22;52586;-43.152;172.732;2023-03-23T14:48:05;20.90;48.40
65826;DHT22;52586;-43.152;172.732;2023-03-23T14:50:39;20.90;48.50
65826;DHT22;52586;-43.152;172.732;2023-03-23T14:53:16;20.90;48.50
65826;DHT22;52586;-43.152;172.732;2023-03-23T14:55:49;20.90;48.50
65826;DHT22;52586;-43.152;172.732;2023-03-23T14:58:23;20.90;48.50
65826;DHT22;52586;-43.152;172.732;2023-03-23T15:00:57;20.90;48.50
65826;DHT22;52586;-43.152;172.732;2023-03-23T15:03:31;20.90;48.50
65826;DHT22;52586;-43.152;172.732;2023-03-23T15:06:06;20.90;48.50
65826;DHT22;52586;-43.152;172.732;2023-03-23T15:08:40;20.90;48.50
65826;DHT22;52586;-43.152;172.732;2023-03-23T15:11:24;20.90;48.50
65826;DHT22;52586;-43.152;172.732;2023-03-23T15:14:01;20.80;48.50
65826;DHT22;52586;-43.152;172.732;2023-03-23T15:16:33;20.80;48.50
65826;DHT22;52586;-43.152;172.732;2023-03-23T15:19:11;20.90;48.50
65826;DHT22;52586;-43.152;172.732;2023-03-23T15:21:50;20.80;48.50
65826;DHT22;52586;-43.152;172.732;2023-03-23T15:24:26;20.80;48.50
65826;DHT22;52586;-43.152;172.732;2023-03-23T15:27:11;20.80;48.60
65826;DHT22;52586;-43.152;172.732;2023-03-23T15:29:51;20.80;48.60
65826;DHT22;52586;-43.152;172.732;2023-03-23T15:32:27;20.80;48.50
65826;DHT22;52586;-43.152;172.732;2023-03-23T15:34:58;20.70;48.50
65826;DHT22;52586;-43.152;172.732;2023-03-23T15:37:33;20.70;48.50
65826;DHT22;52586;-43.152;172.732;2023-03-23T15:40:05;20.70;48.60
65826;DHT22;52586;-43.152;172.732;2023-03-23T15:42:36;20.70;48.60